Time;durP1;ratioP1;P1;durP2;ratioP2;P2;SDS_P1;SDS_P2;PMS_P1;PMS_P2;Temp;Humidity;BMP_temperature;BMP_pressure;BME280_temperature;BME280_humidity;BME280_pressure;Samples;Min_cycle;Max_cycle;Signal;HPM_P1;HPM_P2
2021/04/19 00:01:54;;;;;;;7.80;5.32;;;6.50;96.80;;;;;;4863810;29;20088;-77
2021/04/19 00:04:20;;;;;;;7.88;5.43;;;6.40;97.60;;;;;;4863771;29;20068;-77
2021/04/19 00:06:46;;;;;;;8.77;5.32;;;6.20;97.90;;;;;;4863675;29;20081;-77
2021/04/19 00:09:12;;;;;;;6.13;4.97;;;6.10;98.30;;;;;;4864268;29;20042;-77
2021/04/19 00:11:38;;;;;;;9.38;5.18;;;6.00;98.90;;;;;;4863656;29;20109;-78
2021/04/19 00:14:04;;;;;;;6.75;5.32;;;5.90;99.40;;;;;;4863619;29;20037;-77
2021/04/19 00:16:30;;;;;;;8.88;5.28;;;5.90;99.90;;;;;;4863740;29;20049;-77
2021/04/19 00:18:56;;;;;;;6.38;4.63;;;5.90;99.90;;;;;;4863841;29;20048;-77
2021/04/19 00:21:22;;;;;;;7.05;4.82;;;5.90;99.90;;;;;;4863773;29;20078;-78
2021/04/19 00:23:48;;;;;;;8.50;4.90;;;6.10;99.90;;;;;;4863662;29;20269;-77
2021/04/19 00:26:14;;;;;;;7.05;4.18;;;6.20;99.50;;;;;;4863618;29;20526;-78
2021/04/19 00:28:40;;;;;;;7.13;4.95;;;6.10;99.40;;;;;;4863264;29;20037;-78
2021/04/19 00:31:07;;;;;;;9.88;5.40;;;6.10;99.90;;;;;;4863596;29;20049;-77
2021/04/19 00:33:33;;;;;;;8.52;5.30;;;6.00;99.90;;;;;;4863479;29;20041;-77
2021/04/19 00:35:59;;;;;;;6.65;4.78;;;5.90;99.90;;;;;;4863509;29;20052;-77
2021/04/19 00:38:25;;;;;;;7.88;5.15;;;5.80;99.90;;;;;;4863465;29;20045;-77
2021/04/19 00:40:53;;;;;;;7.68;5.28;;;5.70;99.90;;;;;;4863408;29;20045;-77
2021/04/19 00:43:20;;;;;;;8.02;5.20;;;5.50;99.90;;;;;;4863219;29;20097;-77
2021/04/19 00:45:49;;;;;;;9.02;5.38;;;5.50;99.90;;;;;;4863285;29;20046;-77
2021/04/19 00:48:15;;;;;;;8.07;5.13;;;5.40;99.90;;;;;;4863309;29;20053;-77
2021/04/19 00:50:41;;;;;;;8.32;5.07;;;5.30;99.90;;;;;;4863577;29;20037;-77
2021/04/19 00:53:07;;;;;;;7.15;5.25;;;5.20;99.90;;;;;;4862943;29;20094;-78
2021/04/19 00:55:33;;;;;;;7.85;5.22;;;5.20;99.90;;;;;;4863159;29;20046;-78
2021/04/19 00:57:59;;;;;;;7.32;5.32;;;5.30;99.90;;;;;;4863037;29;20498;-77
2021/04/19 01:00:31;;;;;;;7.43;5.10;;;5.20;99.90;;;;;;4862201;29;20058;-78
2021/04/19 01:02:57;;;;;;;7.40;5.00;;;5.20;99.90;;;;;;4863105;29;20048;-78
2021/04/19 01:05:27;;;;;;;7.72;5.30;;;5.10;99.90;;;;;;4863406;29;20050;-78
2021/04/19 01:07:53;;;;;;;6.88;5.13;;;5.00;99.90;;;;;;4863185;29;20080;-78
2021/04/19 01:10:19;;;;;;;7.65;4.90;;;5.00;99.90;;;;;;4863139;29;20462;-77
2021/04/19 01:12:45;;;;;;;9.32;5.07;;;4.90;99.90;;;;;;4862731;29;20045;-78
2021/04/19 01:15:14;;;;;;;5.90;4.88;;;4.90;99.90;;;;;;4862655;29;20045;-78
2021/04/19 01:17:44;;;;;;;7.93;5.28;;;4.80;99.90;;;;;;4862595;29;20536;-78
2021/04/19 01:20:12;;;;;;;8.83;5.70;;;4.90;99.90;;;;;;4862704;29;20049;-77
2021/04/19 01:22:39;;;;;;;7.30;5.43;;;4.80;99.90;;;;;;4862866;29;20045;-77
2021/04/19 01:25:12;;;;;;;6.78;5.00;;;4.90;99.90;;;;;;4862644;29;20045;-78
2021/04/19 01:27:38;;;;;;;8.10;5.35;;;4.90;99.90;;;;;;4862347;29;20070;-78
2021/04/19 01:30:06;;;;;;;8.35;4.95;;;4.70;99.90;;;;;;4862698;29;20045;-78
2021/04/19 01:32:32;;;;;;;8.25;5.13;;;4.70;99.90;;;;;;4862910;29;20499;-77
2021/04/19 01:34:58;;;;;;;7.07;5.20;;;4.80;99.90;;;;;;4862508;29;20041;-77
2021/04/19 01:37:23;;;;;;;8.77;5.18;;;4.70;99.90;;;;;;4862708;29;20064;-77
2021/04/19 01:39:50;;;;;;;6.05;4.63;;;4.70;99.90;;;;;;4862660;29;20084;-77
2021/04/19 01:42:16;;;;;;;6.90;4.55;;;4.60;99.90;;;;;;4862398;29;20521;-77
2021/04/19 01:44:42;;;;;;;8.15;5.28;;;4.50;99.90;;;;;;4845995;29;20094;-77
2021/04/19 01:47:08;;;;;;;7.85;5.28;;;4.50;99.90;;;;;;4862643;29;20494;-77
2021/04/19 01:49:34;;;;;;;9.50;5.05;;;4.40;99.90;;;;;;4862415;29;20128;-77
2021/04/19 01:52:01;;;;;;;6.20;5.10;;;4.40;99.90;;;;;;4862526;29;20094;-77
2021/04/19 01:54:27;;;;;;;7.63;5.47;;;4.40;99.90;;;;;;4862773;29;20045;-77
2021/04/19 01:56:54;;;;;;;8.10;5.50;;;4.30;99.90;;;;;;4862404;29;20057;-78
2021/04/19 01:59:20;;;;;;;8.50;5.55;;;4.30;99.90;;;;;;4862679;29;20066;-78
2021/04/19 02:01:56;;;;;;;9.38;6.13;;;4.20;99.90;;;;;;4862436;29;20084;-77
2021/04/19 02:04:52;;;;;;;7.95;5.30;;;4.20;99.90;;;;;;4862494;29;20037;-77
2021/04/19 02:07:36;;;;;;;9.13;5.82;;;4.20;99.90;;;;;;4861919;29;20080;-77
2021/04/19 02:10:19;;;;;;;7.50;5.55;;;4.20;99.90;;;;;;4862202;29;20044;-78
2021/04/19 02:12:53;;;;;;;8.48;5.47;;;4.10;99.90;;;;;;4864736;29;20601;-77
2021/04/19 02:15:27;;;;;;;9.38;5.88;;;4.00;99.90;;;;;;4865805;29;20109;-78
2021/04/19 02:18:35;;;;;;;7.40;5.90;;;4.00;99.90;;;;;;4849327;29;20076;-78
2021/04/19 02:21:11;;;;;;;11.23;5.72;;;3.90;99.90;;;;;;4829366;29;20045;-77
2021/04/19 02:23:45;;;;;;;8.35;5.95;;;3.90;99.90;;;;;;4865787;29;20049;-77
2021/04/19 02:26:24;;;;;;;10.00;6.05;;;3.90;99.90;;;;;;4866385;29;20056;-77
2021/04/19 02:29:03;;;;;;;6.68;5.60;;;3.90;99.90;;;;;;4865872;29;20033;-77
2021/04/19 02:31:37;;;;;;;8.95;6.07;;;3.90;99.90;;;;;;4865501;29;20493;-77
2021/04/19 02:34:07;;;;;;;7.82;5.78;;;3.70;99.90;;;;;;4865655;29;20129;-77
2021/04/19 02:36:35;;;;;;;9.10;5.70;;;3.70;99.90;;;;;;4865848;29;20030;-77
2021/04/19 02:39:02;;;;;;;8.00;6.20;;;3.70;99.90;;;;;;4865662;29;20041;-78
2021/04/19 02:41:29;;;;;;;8.52;5.68;;;3.70;99.90;;;;;;4865620;29;20041;-77
2021/04/19 02:43:57;;;;;;;9.32;5.82;;;3.70;99.90;;;;;;4865036;29;20108;-77
2021/04/19 02:46:23;;;;;;;9.55;6.38;;;3.70;99.90;;;;;;4865402;29;20132;-78
2021/04/19 02:48:49;;;;;;;8.32;5.63;;;3.70;99.90;;;;;;4865929;29;20053;-77
2021/04/19 02:51:16;;;;;;;7.60;6.03;;;3.70;99.90;;;;;;4865075;29;20136;-77
2021/04/19 02:53:44;;;;;;;8.65;6.22;;;3.70;99.90;;;;;;4865247;29;20072;-78
2021/04/19 02:56:11;;;;;;;9.15;6.05;;;3.70;99.90;;;;;;4864502;29;20509;-77
2021/04/19 02:58:57;;;;;;;7.65;5.60;;;3.60;99.90;;;;;;4865060;29;20049;-77
2021/04/19 03:01:28;;;;;;;10.57;6.47;;;3.50;99.90;;;;;;4865117;29;20076;-78
2021/04/19 03:03:57;;;;;;;8.43;6.10;;;3.40;99.90;;;;;;4864766;29;20064;-77
2021/04/19 03:06:25;;;;;;;11.25;6.40;;;3.40;99.90;;;;;;4865070;29;20073;-77
2021/04/19 03:08:58;;;;;;;8.13;6.38;;;3.30;99.90;;;;;;4865078;29;20038;-77
2021/04/19 03:11:32;;;;;;;8.45;6.13;;;3.20;99.90;;;;;;4865036;29;20045;-77
2021/04/19 03:14:01;;;;;;;9.80;6.57;;;3.30;99.90;;;;;;4864632;29;20041;-78
2021/04/19 03:16:29;;;;;;;9.32;6.47;;;3.20;99.90;;;;;;4864812;29;20497;-77
2021/04/19 03:18:57;;;;;;;7.93;6.25;;;3.20;99.90;;;;;;4864924;29;20124;-77
2021/04/19 03:21:26;;;;;;;9.85;6.70;;;3.20;99.90;;;;;;4864526;29;20520;-78
2021/04/19 03:23:55;;;;;;;8.85;6.47;;;3.10;99.90;;;;;;4863816;29;20037;-77
2021/04/19 03:26:25;;;;;;;9.25;6.40;;;3.10;99.90;;;;;;4864907;29;20565;-78
2021/04/19 03:28:53;;;;;;;12.23;7.40;;;3.10;99.90;;;;;;4864890;29;20049;-77
2021/04/19 03:31:23;;;;;;;11.13;7.05;;;3.00;99.90;;;;;;4864607;29;20087;-78
2021/04/19 03:33:52;;;;;;;10.02;6.93;;;3.00;99.90;;;;;;4864327;29;20402;-77
2021/04/19 03:36:20;;;;;;;9.73;7.13;;;3.00;99.90;;;;;;4864346;29;20090;-78
2021/04/19 03:38:48;;;;;;;11.25;7.30;;;3.00;99.90;;;;;;4864620;29;20049;-77
2021/04/19 03:41:16;;;;;;;9.05;6.43;;;3.00;99.90;;;;;;4847827;29;20451;-78
2021/04/19 03:43:48;;;;;;;11.90;6.97;;;2.90;99.90;;;;;;4864226;29;20041;-77
2021/04/19 03:46:16;;;;;;;9.80;6.57;;;2.80;99.90;;;;;;4864384;29;20089;-78
2021/04/19 03:48:44;;;;;;;10.30;6.53;;;2.80;99.90;;;;;;4864263;29;20045;-78
2021/04/19 03:51:15;;;;;;;9.27;6.50;;;2.70;99.90;;;;;;4864007;29;20487;-77
2021/04/19 03:53:42;;;;;;;9.80;6.38;;;2.60;99.90;;;;;;4864085;29;20043;-77
2021/04/19 03:56:10;;;;;;;10.43;6.55;;;2.60;99.90;;;;;;4863685;29;20058;-77
2021/04/19 03:58:37;;;;;;;10.88;6.78;;;2.60;99.90;;;;;;4864106;29;20128;-77
2021/04/19 04:01:06;;;;;;;9.85;6.65;;;2.50;99.90;;;;;;4863885;29;20049;-77
2021/04/19 04:03:33;;;;;;;8.30;6.38;;;2.60;99.90;;;;;;4864441;29;20074;-77
2021/04/19 04:06:00;;;;;;;9.98;6.78;;;2.60;99.90;;;;;;4864052;29;20045;-77
2021/04/19 04:08:28;;;;;;;11.27;6.65;;;2.60;99.90;;;;;;4864185;29;20053;-77
2021/04/19 04:10:55;;;;;;;14.43;7.72;;;2.60;99.90;;;;;;4864002;29;20052;-77
2021/04/19 04:13:21;;;;;;;8.85;7.32;;;2.60;99.90;;;;;;4863756;29;20121;-77
2021/04/19 04:15:59;;;;;;;10.32;7.10;;;2.60;99.90;;;;;;4864064;29;20042;-77
2021/04/19 04:18:25;;;;;;;9.88;7.57;;;2.60;99.90;;;;;;4864020;29;20085;-77
2021/04/19 04:20:51;;;;;;;12.88;8.27;;;2.50;99.90;;;;;;4864088;29;20042;-77
2021/04/19 04:23:18;;;;;;;14.85;8.35;;;2.40;99.90;;;;;;4864056;29;20116;-77
2021/04/19 04:25:45;;;;;;;11.43;7.60;;;2.50;99.90;;;;;;4863733;29;20033;-77
2021/04/19 04:28:11;;;;;;;11.38;7.20;;;2.50;99.90;;;;;;4863991;29;20113;-77
2021/04/19 04:30:38;;;;;;;9.73;6.65;;;2.40;99.90;;;;;;4863953;29;20509;-77
2021/04/19 04:33:05;;;;;;;10.32;7.35;;;2.40;99.90;;;;;;4863476;29;20160;-77
2021/04/19 04:35:31;;;;;;;8.43;7.10;;;2.40;99.90;;;;;;4864089;29;20037;-77
2021/04/19 04:37:58;;;;;;;12.60;7.75;;;2.40;99.90;;;;;;4863719;29;20053;-77
2021/04/19 04:40:28;;;;;;;13.18;8.32;;;2.30;99.90;;;;;;4864114;29;20038;-77
2021/04/19 04:43:00;;;;;;;11.55;7.78;;;2.30;99.90;;;;;;4863834;29;20045;-77
2021/04/19 04:45:26;;;;;;;9.75;6.95;;;2.20;99.90;;;;;;4863550;29;20537;-78
2021/04/19 04:48:02;;;;;;;10.68;7.30;;;2.00;99.90;;;;;;4863248;29;20087;-77
2021/04/19 04:50:49;;;;;;;14.10;8.73;;;2.00;99.90;;;;;;4863887;29;20038;-77
2021/04/19 04:53:27;;;;;;;15.13;8.45;;;2.00;99.90;;;;;;4863591;29;20042;-78
2021/04/19 04:55:55;;;;;;;10.38;7.70;;;2.10;99.90;;;;;;4863296;29;20041;-77
2021/04/19 04:58:22;;;;;;;9.45;7.70;;;2.10;99.90;;;;;;4862865;29;20053;-76
2021/04/19 05:00:50;;;;;;;10.63;7.45;;;2.20;99.90;;;;;;4863369;29;20057;-77
2021/04/19 05:03:16;;;;;;;15.00;8.35;;;2.20;99.90;;;;;;4862739;29;20053;-78
2021/04/19 05:05:44;;;;;;;20.23;10.70;;;2.20;99.90;;;;;;4862717;29;20068;-77
2021/04/19 05:08:13;;;;;;;15.13;9.45;;;2.30;99.90;;;;;;4862991;29;20048;-77
2021/04/19 05:10:40;;;;;;;14.25;8.88;;;2.40;99.90;;;;;;4862791;29;20116;-77
2021/04/19 05:13:13;;;;;;;11.80;7.22;;;2.30;99.90;;;;;;4862580;29;20052;-77
2021/04/19 05:15:48;;;;;;;11.38;8.63;;;2.30;99.90;;;;;;4862192;29;20124;-77
2021/04/19 05:18:15;;;;;;;10.13;6.97;;;2.30;99.90;;;;;;4862733;29;20089;-78
2021/04/19 05:20:42;;;;;;;13.07;7.72;;;2.30;99.90;;;;;;4862586;29;20075;-78
2021/04/19 05:23:08;;;;;;;10.95;7.65;;;2.30;99.90;;;;;;4862662;29;20067;-78
2021/04/19 05:25:34;;;;;;;10.35;7.63;;;2.30;99.90;;;;;;4863423;29;20045;-77
2021/04/19 05:28:01;;;;;;;11.45;7.28;;;2.40;99.90;;;;;;4862755;29;20052;-77
2021/04/19 05:30:31;;;;;;;9.73;7.68;;;2.40;99.90;;;;;;4862648;29;20050;-77
2021/04/19 05:33:02;;;;;;;13.88;8.00;;;2.40;99.90;;;;;;4862682;29;20112;-78
2021/04/19 05:35:30;;;;;;;17.50;8.70;;;2.50;99.90;;;;;;4862570;29;20093;-78
2021/04/19 05:37:56;;;;;;;10.68;7.20;;;2.90;99.90;;;;;;4862367;29;20140;-77
2021/04/19 05:40:26;;;;;;;7.15;5.35;;;4.00;99.90;;;;;;4862819;29;20101;-77
2021/04/19 05:42:53;;;;;;;9.10;5.60;;;5.10;99.90;;;;;;4845857;29;20037;-78
2021/04/19 05:45:19;;;;;;;7.97;6.07;;;6.10;99.90;;;;;;4862318;29;20041;-77
2021/04/19 05:47:47;;;;;;;8.00;5.13;;;6.80;99.90;;;;;;4861953;29;20042;-77
2021/04/19 05:50:14;;;;;;;8.48;5.22;;;7.30;99.90;;;;;;4862245;29;20049;-77
2021/04/19 05:52:40;;;;;;;6.85;5.28;;;7.40;99.90;;;;;;4862343;29;20046;-78
2021/04/19 05:55:07;;;;;;;5.60;4.68;;;8.60;96.50;;;;;;4861850;29;20379;-78
2021/04/19 05:57:50;;;;;;;6.90;4.80;;;8.10;91.70;;;;;;4861886;29;20052;-77
2021/04/19 06:00:27;;;;;;;9.43;5.07;;;9.30;85.30;;;;;;4861890;29;20104;-78
2021/04/19 06:03:11;;;;;;;6.55;4.47;;;10.50;77.10;;;;;;4862706;29;20059;-77
2021/04/19 06:05:50;;;;;;;7.72;4.22;;;11.20;67.90;;;;;;4862449;29;20076;-78
2021/04/19 06:08:32;;;;;;;5.70;4.13;;;12.30;64.10;;;;;;4862199;29;20051;-78
2021/04/19 06:11:12;;;;;;;5.68;4.45;;;11.60;57.10;;;;;;4862377;29;20041;-78
2021/04/19 06:13:39;;;;;;;6.00;4.60;;;12.50;57.40;;;;;;4862806;29;20045;-78
2021/04/19 06:16:05;;;;;;;5.30;4.13;;;13.90;53.90;;;;;;4862370;29;20045;-78
2021/04/19 06:18:32;;;;;;;5.32;4.03;;;14.70;51.70;;;;;;4861956;29;20049;-78
2021/04/19 06:21:01;;;;;;;6.30;4.47;;;15.00;49.60;;;;;;4862227;29;20066;-78
2021/04/19 06:23:27;;;;;;;7.15;4.50;;;13.70;47.80;;;;;;4862196;29;20034;-78
2021/04/19 06:25:53;;;;;;;4.95;4.25;;;15.10;48.70;;;;;;4861953;29;20152;-78
2021/04/19 06:28:23;;;;;;;7.00;4.43;;;14.90;48.20;;;;;;4861735;29;20049;-78
2021/04/19 06:30:49;;;;;;;6.45;4.25;;;14.50;48.20;;;;;;4862226;29;20093;-78
2021/04/19 06:33:18;;;;;;;9.18;4.60;;;15.20;46.40;;;;;;4861784;29;20117;-78
2021/04/19 06:35:44;;;;;;;7.15;4.60;;;16.50;42.70;;;;;;4862088;29;20045;-78
2021/04/19 06:38:10;;;;;;;8.45;5.10;;;13.60;45.10;;;;;;4862046;29;20056;-78
2021/04/19 06:40:38;;;;;;;10.80;4.55;;;15.60;44.80;;;;;;4845270;29;20573;-78
2021/04/19 06:43:05;;;;;;;4.65;4.10;;;14.80;43.10;;;;;;4861769;29;20071;-78
2021/04/19 06:45:33;;;;;;;7.05;4.78;;;14.50;43.00;;;;;;4861586;29;20049;-78
2021/04/19 06:48:02;;;;;;;6.65;4.88;;;16.50;42.10;;;;;;4862052;29;20049;-78
2021/04/19 06:50:29;;;;;;;6.65;4.85;;;14.80;42.20;;;;;;4862071;29;20524;-78
2021/04/19 06:52:55;;;;;;;5.78;4.95;;;15.30;44.40;;;;;;4862101;29;20045;-78
2021/04/19 06:55:21;;;;;;;6.47;5.30;;;14.30;47.70;;;;;;4862007;29;20160;-78
2021/04/19 06:57:57;;;;;;;6.93;5.43;;;12.60;52.60;;;;;;4861484;29;20536;-78
2021/04/19 07:00:25;;;;;;;8.13;5.70;;;11.10;60.20;;;;;;4864954;29;20064;-78
2021/04/19 07:02:53;;;;;;;8.13;5.50;;;10.10;63.80;;;;;;4865574;29;20121;-78
2021/04/19 07:05:24;;;;;;;7.78;5.70;;;9.10;67.60;;;;;;4864414;29;20056;-78
2021/04/19 07:08:16;;;;;;;7.38;5.70;;;8.80;72.30;;;;;;4865035;29;20152;-78
2021/04/19 07:10:44;;;;;;;6.95;5.90;;;8.80;74.00;;;;;;4865224;29;20046;-77
2021/04/19 07:13:13;;;;;;;9.68;5.30;;;8.50;76.70;;;;;;4864993;29;20041;-77
2021/04/19 07:15:44;;;;;;;10.95;6.30;;;8.10;80.00;;;;;;4865217;29;20045;-77
2021/04/19 07:18:11;;;;;;;9.07;6.35;;;8.10;81.60;;;;;;4865107;29;20050;-78
2021/04/19 07:20:37;;;;;;;7.82;5.07;;;8.20;83.90;;;;;;4865740;29;20094;-78
2021/04/19 07:23:04;;;;;;;8.85;5.97;;;8.20;85.50;;;;;;4864668;29;20620;-78
2021/04/19 07:25:31;;;;;;;7.07;5.35;;;8.30;86.00;;;;;;4864647;29;20075;-78
2021/04/19 07:27:59;;;;;;;8.45;5.95;;;8.30;84.80;;;;;;4863691;29;20046;-78
2021/04/19 07:30:25;;;;;;;18.60;12.65;;;8.30;84.90;;;;;;4862442;29;20037;-78
2021/04/19 07:32:51;;;;;;;7.18;5.32;;;8.30;85.60;;;;;;4864373;29;20048;-78
2021/04/19 07:35:25;;;;;;;5.28;3.75;;;8.50;86.40;;;;;;4865155;29;20041;-77
2021/04/19 07:38:04;;;;;;;12.75;8.82;;;8.70;84.50;;;;;;4864385;29;20049;-75
2021/04/19 07:40:36;;;;;;;6.13;4.22;;;8.80;83.60;;;;;;4864749;29;20041;-79
2021/04/19 07:43:21;;;;;;;36.60;18.63;;;9.00;79.70;;;;;;4864559;29;20544;-77
2021/04/19 07:46:08;;;;;;;13.10;7.82;;;9.20;82.10;;;;;;4864637;29;20069;-77
2021/04/19 07:48:50;;;;;;;14.80;9.35;;;9.30;84.30;;;;;;4864137;29;20085;-77
2021/04/19 07:51:29;;;;;;;7.82;4.10;;;9.50;82.40;;;;;;4863673;29;20482;-77
2021/04/19 07:54:10;;;;;;;3.50;2.90;;;9.60;80.80;;;;;;4863685;29;20052;-78
2021/04/19 07:56:41;;;;;;;7.82;3.35;;;9.80;67.10;;;;;;4863162;29;20069;-77
2021/04/19 07:59:29;;;;;;;4.73;3.13;;;9.90;61.40;;;;;;4862947;29;20128;-77
2021/04/19 08:01:59;;;;;;;11.70;4.95;;;9.90;64.40;;;;;;4863605;29;20072;-77
2021/04/19 08:04:26;;;;;;;14.65;4.55;;;10.00;68.00;;;;;;4863431;29;20080;-78
2021/04/19 08:06:52;;;;;;;8.38;3.00;;;10.10;62.70;;;;;;4863048;29;20128;-76
2021/04/19 08:09:26;;;;;;;8.88;4.22;;;10.10;63.40;;;;;;4872828;29;20124;-76
2021/04/19 08:11:57;;;;;;;9.15;3.70;;;10.20;61.90;;;;;;4862533;29;20075;-76
2021/04/19 08:14:30;;;;;;;9.23;3.20;;;10.30;62.40;;;;;;4862897;29;20098;-76
2021/04/19 08:17:05;;;;;;;13.93;3.50;;;10.40;59.70;;;;;;4862416;29;20120;-76
2021/04/19 08:19:38;;;;;;;15.38;3.63;;;10.50;60.50;;;;;;4862341;29;20116;-77
2021/04/19 08:22:20;;;;;;;10.75;3.53;;;10.60;61.00;;;;;;4862737;29;20051;-76
2021/04/19 08:24:48;;;;;;;11.85;3.25;;;10.50;60.40;;;;;;4863010;29;20041;-77
2021/04/19 08:27:22;;;;;;;25.92;16.48;;;10.50;61.10;;;;;;4863223;29;20097;-77
2021/04/19 08:29:49;;;;;;;7.95;3.60;;;10.70;61.20;;;;;;4862551;29;20037;-77
2021/04/19 08:32:18;;;;;;;8.23;4.53;;;10.80;59.10;;;;;;4862653;29;20048;-77
2021/04/19 08:34:44;;;;;;;6.72;3.50;;;10.80;61.70;;;;;;4862190;29;20041;-76
2021/04/19 08:37:12;;;;;;;6.45;3.30;;;10.70;62.00;;;;;;4845888;29;20170;-77
2021/04/19 08:39:39;;;;;;;5.88;3.15;;;10.80;58.00;;;;;;4862273;29;20490;-77
2021/04/19 08:42:06;;;;;;;5.60;3.50;;;11.00;57.40;;;;;;4862198;29;20069;-77
2021/04/19 08:44:33;;;;;;;5.65;3.03;;;10.90;59.60;;;;;;4862171;29;20116;-77
2021/04/19 08:47:01;;;;;;;4.10;3.10;;;11.10;58.60;;;;;;4862181;29;20052;-77
2021/04/19 08:49:29;;;;;;;4.57;3.30;;;11.20;57.70;;;;;;4862560;29;20486;-77
2021/04/19 08:51:54;;;;;;;5.22;2.75;;;11.10;57.10;;;;;;4862805;29;20536;-77
2021/04/19 08:54:22;;;;;;;6.03;3.70;;;11.20;55.50;;;;;;4862863;29;20033;-77
2021/04/19 08:56:48;;;;;;;4.35;3.28;;;11.30;55.40;;;;;;4863516;29;20049;-77
2021/04/19 08:59:15;;;;;;;6.57;3.33;;;11.30;53.20;;;;;;4863816;29;20120;-77
2021/04/19 09:01:43;;;;;;;7.28;3.33;;;11.20;55.90;;;;;;4862506;29;20081;-77
2021/04/19 09:04:09;;;;;;;5.32;3.25;;;11.30;57.00;;;;;;4862923;29;20045;-77
2021/04/19 09:06:48;;;;;;;7.15;3.65;;;11.50;56.90;;;;;;4861680;29;20077;-77
2021/04/19 09:09:15;;;;;;;5.93;3.10;;;11.50;56.30;;;;;;4864343;29;20041;-77
2021/04/19 09:11:41;;;;;;;5.55;2.75;;;11.60;56.70;;;;;;4859961;29;20034;-77
2021/04/19 09:14:13;;;;;;;4.53;3.30;;;11.40;55.90;;;;;;4862201;29;20128;-78
2021/04/19 09:16:41;;;;;;;5.20;3.08;;;11.50;53.70;;;;;;4862699;29;20092;-78
2021/04/19 09:19:07;;;;;;;8.07;3.20;;;11.50;53.80;;;;;;4862321;29;20038;-78
2021/04/19 09:21:33;;;;;;;4.60;3.05;;;11.60;54.40;;;;;;4862070;29;20057;-78
2021/04/19 09:23:59;;;;;;;6.78;3.10;;;11.80;53.90;;;;;;4862438;29;20034;-78
2021/04/19 09:26:44;;;;;;;5.93;2.58;;;11.70;51.30;;;;;;4862177;29;20050;-77
2021/04/19 09:29:10;;;;;;;6.10;3.08;;;11.60;54.20;;;;;;4860110;29;20069;-77
2021/04/19 09:32:02;;;;;;;4.40;3.17;;;11.70;52.40;;;;;;4859724;29;20117;-77
2021/04/19 09:34:41;;;;;;;4.03;2.55;;;11.80;53.90;;;;;;4858905;29;20120;-77
2021/04/19 09:37:09;;;;;;;4.35;3.00;;;12.10;52.30;;;;;;4860389;29;20046;-77
2021/04/19 09:40:05;;;;;;;6.53;3.17;;;12.20;51.30;;;;;;4862306;29;20049;-77
2021/04/19 09:43:06;;;;;;;5.80;2.97;;;12.30;51.30;;;;;;4858366;29;20067;-77
2021/04/19 09:45:52;;;;;;;7.22;3.58;;;12.10;52.30;;;;;;4861474;29;20049;-77
2021/04/19 09:48:33;;;;;;;6.38;3.60;;;12.10;50.70;;;;;;4845184;29;20133;-77
2021/04/19 09:51:19;;;;;;;4.72;3.22;;;12.10;51.40;;;;;;4861720;29;20045;-78
2021/04/19 09:54:09;;;;;;;4.65;3.08;;;12.20;52.60;;;;;;4860118;29;20071;-77
2021/04/19 09:56:55;;;;;;;8.60;2.90;;;12.10;50.10;;;;;;4860503;29;20038;-77
2021/04/19 09:59:23;;;;;;;4.47;2.83;;;12.10;49.80;;;;;;4858937;29;20045;-77
2021/04/19 10:01:53;;;;;;;3.45;2.75;;;12.00;50.70;;;;;;4856318;29;20129;-77
2021/04/19 10:04:20;;;;;;;2.90;2.30;;;12.30;51.40;;;;;;4860116;29;20068;-77
2021/04/19 10:06:53;;;;;;;4.28;2.55;;;12.50;48.90;;;;;;4860130;29;20074;-77
2021/04/19 10:09:26;;;;;;;3.15;2.47;;;12.50;48.20;;;;;;4860797;29;20049;-76
2021/04/19 10:12:00;;;;;;;4.70;2.45;;;12.70;49.30;;;;;;4860805;29;20049;-77
2021/04/19 10:14:27;;;;;;;4.88;2.03;;;12.30;48.70;;;;;;4858776;29;20132;-76
2021/04/19 10:16:53;;;;;;;4.35;2.80;;;12.40;48.70;;;;;;4848151;29;20055;-76
2021/04/19 10:19:30;;;;;;;5.90;2.45;;;12.50;49.20;;;;;;4858371;29;20506;-76
2021/04/19 10:22:07;;;;;;;6.22;3.50;;;12.70;50.40;;;;;;4859019;29;20498;-78
2021/04/19 10:24:35;;;;;;;5.30;2.95;;;12.80;51.30;;;;;;4860970;29;20053;-77
2021/04/19 10:27:02;;;;;;;6.97;3.35;;;12.60;49.70;;;;;;4859527;29;20077;-77
2021/04/19 10:29:28;;;;;;;3.05;2.33;;;12.80;48.80;;;;;;4858157;29;20046;-76
2021/04/19 10:32:02;;;;;;;8.32;3.20;;;12.60;51.00;;;;;;4858239;29;20048;-77
2021/04/19 10:34:31;;;;;;;4.28;2.20;;;12.70;51.20;;;;;;4863025;29;20045;-76
2021/04/19 10:37:03;;;;;;;3.45;2.47;;;12.40;48.00;;;;;;4863625;29;20045;-75
2021/04/19 10:39:32;;;;;;;3.20;2.15;;;12.40;48.00;;;;;;4864922;29;20036;-76
2021/04/19 10:42:05;;;;;;;3.20;2.28;;;12.50;49.20;;;;;;4865781;29;20501;-76
2021/04/19 10:44:43;;;;;;;3.30;2.47;;;12.50;49.60;;;;;;4865639;29;20045;-76
2021/04/19 10:47:24;;;;;;;5.68;2.20;;;12.50;49.70;;;;;;4865791;29;20038;-76
2021/04/19 10:49:50;;;;;;;2.90;2.10;;;12.60;47.90;;;;;;4865891;29;20112;-76
2021/04/19 10:52:16;;;;;;;7.22;1.88;;;12.60;49.20;;;;;;4865752;29;20045;-76
2021/04/19 10:54:43;;;;;;;4.70;2.40;;;12.70;46.50;;;;;;4852203;29;20044;-77
2021/04/19 10:57:21;;;;;;;4.50;2.03;;;12.80;47.60;;;;;;4861108;29;20052;-76
2021/04/19 10:59:48;;;;;;;2.80;2.30;;;12.90;46.50;;;;;;4864921;29;20045;-77
2021/04/19 11:02:14;;;;;;;4.55;2.58;;;13.10;46.00;;;;;;4864644;29;20069;-76
2021/04/19 11:04:40;;;;;;;2.67;2.30;;;13.10;45.90;;;;;;4864378;29;20086;-76
2021/04/19 11:07:26;;;;;;;2.15;1.88;;;13.10;47.40;;;;;;4863007;29;20129;-76
2021/04/19 11:10:24;;;;;;;2.78;1.98;;;13.30;47.20;;;;;;4862949;29;20049;-76
2021/04/19 11:13:10;;;;;;;4.72;2.00;;;13.60;43.30;;;;;;4864606;29;20033;-76
2021/04/19 11:15:37;;;;;;;3.13;1.90;;;13.90;43.90;;;;;;4864607;29;20045;-76
2021/04/19 11:18:23;;;;;;;3.95;1.73;;;14.00;43.50;;;;;;4864751;29;20050;-76
2021/04/19 11:20:53;;;;;;;2.92;2.05;;;13.90;42.40;;;;;;4864612;29;20375;-76
2021/04/19 11:23:26;;;;;;;2.17;1.83;;;13.90;42.60;;;;;;4864462;29;20067;-76
2021/04/19 11:25:52;;;;;;;1.80;1.60;;;14.10;43.60;;;;;;4864797;29;20112;-76
2021/04/19 11:28:19;;;;;;;3.13;2.25;;;14.50;41.50;;;;;;4863407;29;20052;-76
2021/04/19 11:30:49;;;;;;;2.60;2.33;;;14.60;41.50;;;;;;4864527;29;20120;-76
2021/04/19 11:33:20;;;;;;;2.75;1.80;;;14.50;41.40;;;;;;4864545;29;20037;-76
2021/04/19 11:35:49;;;;;;;;;;;14.40;42.80;;;;;;4864977;29;20080;-75
2021/04/19 11:38:22;;;;;;;6.20;2.38;;;14.40;42.70;;;;;;4864301;29;19977;-76
2021/04/19 11:40:50;;;;;;;3.45;1.98;;;14.30;41.60;;;;;;4864306;29;20516;-76
2021/04/19 11:43:23;;;;;;;2.00;1.80;;;14.20;42.20;;;;;;4863103;29;20075;-76
2021/04/19 11:46:00;;;;;;;3.35;1.70;;;14.20;41.40;;;;;;4861951;29;20071;-76
2021/04/19 11:48:26;;;;;;;2.58;2.00;;;14.20;41.10;;;;;;4860699;29;20120;-75
2021/04/19 11:50:52;;;;;;;6.85;2.10;;;14.20;41.50;;;;;;4863107;29;20097;-76
2021/04/19 11:53:20;;;;;;;2.47;1.60;;;14.20;41.10;;;;;;4864173;29;20046;-75
2021/04/19 11:55:46;;;;;;;5.07;1.65;;;14.20;41.00;;;;;;4864506;29;20073;-75
2021/04/19 11:58:12;;;;;;;2.78;1.70;;;13.80;42.00;;;;;;4863537;29;20076;-75
2021/04/19 12:00:38;;;;;;;3.60;1.67;;;13.80;41.80;;;;;;4863709;29;20049;-75
2021/04/19 12:03:04;;;;;;;5.40;1.98;;;13.90;42.50;;;;;;4864193;29;20042;-75
2021/04/19 12:05:29;;;;;;;2.40;1.42;;;13.90;42.70;;;;;;4863830;29;20049;-75
2021/04/19 12:07:55;;;;;;;4.45;1.58;;;13.90;40.40;;;;;;4863995;29;20077;-75
2021/04/19 12:10:21;;;;;;;4.38;1.80;;;13.80;41.40;;;;;;4864337;29;20413;-75
2021/04/19 12:12:47;;;;;;;2.35;1.50;;;13.70;42.30;;;;;;4864029;29;20081;-75
2021/04/19 12:15:14;;;;;;;6.05;2.22;;;13.80;42.10;;;;;;4863252;29;20057;-76
2021/04/19 12:17:39;;;;;;;3.80;1.65;;;14.40;43.10;;;;;;4866713;29;20124;-75
2021/04/19 12:20:06;;;;;;;1.58;1.40;;;14.80;39.70;;;;;;4864177;29;20133;-74
2021/04/19 12:22:32;;;;;;;3.05;1.30;;;14.80;42.30;;;;;;4846103;29;20514;-75
2021/04/19 12:24:58;;;;;;;4.38;1.73;;;14.70;40.80;;;;;;4863226;29;20105;-76
2021/04/19 12:27:24;;;;;;;2.97;1.60;;;14.40;39.50;;;;;;4863475;29;20461;-76
2021/04/19 12:29:50;;;;;;;2.67;1.60;;;14.50;40.80;;;;;;4863195;29;20050;-76
2021/04/19 12:32:15;;;;;;;4.25;1.65;;;14.40;39.60;;;;;;4863114;29;20034;-76
2021/04/19 12:34:41;;;;;;;2.08;1.45;;;14.30;41.80;;;;;;4863543;29;20486;-76
2021/04/19 12:37:07;;;;;;;1.50;1.15;;;14.30;39.30;;;;;;4863188;29;20049;-75
2021/04/19 12:39:34;;;;;;;4.88;1.35;;;14.30;38.90;;;;;;4861842;29;20041;-76
2021/04/19 12:41:59;;;;;;;846.67;511.15;;;14.60;38.20;;;;;;4863254;29;20068;-75
2021/04/19 12:44:25;;;;;;;175.20;17.05;;;14.80;37.60;;;;;;4862998;29;20041;-75
2021/04/19 12:46:52;;;;;;;8.10;5.72;;;14.90;38.60;;;;;;4862825;29;20052;-76
2021/04/19 12:49:20;;;;;;;2.47;2.28;;;14.90;35.80;;;;;;4861756;29;20041;-77
2021/04/19 12:51:46;;;;;;;1.20;1.10;;;15.00;32.10;;;;;;4848330;29;20124;-78
2021/04/19 12:54:12;;;;;;;2.90;1.55;;;14.90;34.00;;;;;;4860694;29;20045;-78
2021/04/19 12:56:38;;;;;;;1.50;1.00;;;15.10;31.50;;;;;;4860667;29;20041;-77
2021/04/19 12:59:04;;;;;;;1.70;1.20;;;15.30;30.50;;;;;;4861727;29;20050;-78
2021/04/19 13:01:30;;;;;;;1.42;0.90;;;15.10;30.10;;;;;;4862540;29;20639;-78
2021/04/19 13:03:56;;;;;;;0.93;0.85;;;15.50;28.80;;;;;;4862615;29;20053;-78
2021/04/19 13:06:22;;;;;;;2.00;1.20;;;15.60;29.40;;;;;;4862250;29;20049;-78